Time;durP1;ratioP1;P1;durP2;ratioP2;P2;SDS_P1;SDS_P2;PMS_P1;PMS_P2;Temp;Humidity;BMP_temperature;BMP_pressure;BME280_temperature;BME280_humidity;BME280_pressure;Samples;Min_cycle;Max_cycle;Signal;HPM_P1;HPM_P2
2021/12/03 00:00:42;;;;;;;8.70;4.40;;;0.90;98.80;;;;;;5014237;28;20026;-83
2021/12/03 00:03:09;;;;;;;8.17;4.17;;;0.90;98.70;;;;;;5012794;28;20022;-83
2021/12/03 00:05:35;;;;;;;10.50;4.73;;;0.90;98.70;;;;;;5014437;28;20026;-83
2021/12/03 00:08:01;;;;;;;9.10;4.57;;;0.90;98.80;;;;;;5014398;28;20022;-83
2021/12/03 00:10:27;;;;;;;11.57;5.33;;;0.90;98.80;;;;;;4996827;28;20030;-84
2021/12/03 00:12:55;;;;;;;12.97;4.33;;;0.90;98.80;;;;;;5012932;28;20018;-84
2021/12/03 00:15:25;;;;;;;11.30;5.10;;;0.90;98.90;;;;;;5014317;28;20363;-83
2021/12/03 00:17:51;;;;;;;10.40;5.00;;;0.90;98.90;;;;;;5014332;28;20108;-83
2021/12/03 00:20:18;;;;;;;12.57;5.40;;;0.90;99.00;;;;;;5013975;28;20034;-82
2021/12/03 00:22:48;;;;;;;8.80;4.57;;;0.90;98.90;;;;;;5014051;28;20017;-82
2021/12/03 00:25:14;;;;;;;11.20;4.90;;;0.90;99.00;;;;;;5013843;28;20022;-82
2021/12/03 00:27:40;;;;;;;11.50;5.13;;;1.00;99.10;;;;;;5012914;28;20160;-81
2021/12/03 00:30:10;;;;;;;9.10;4.87;;;0.90;99.10;;;;;;5013555;28;20056;-82
2021/12/03 00:32:35;;;;;;;12.10;5.37;;;0.90;99.00;;;;;;5012762;28;20014;-82
2021/12/03 00:35:02;;;;;;;11.73;5.20;;;0.90;99.00;;;;;;4996434;28;20032;-82
2021/12/03 00:37:27;;;;;;;9.90;5.23;;;1.00;99.10;;;;;;5012658;28;20085;-81
2021/12/03 00:39:54;;;;;;;10.90;5.50;;;0.90;99.10;;;;;;4995984;28;20029;-81
2021/12/03 00:42:20;;;;;;;10.47;5.67;;;0.80;99.10;;;;;;4995872;28;20030;-81
2021/12/03 00:44:52;;;;;;;12.83;5.37;;;0.90;99.10;;;;;;5013068;28;20849;-81
2021/12/03 00:47:18;;;;;;;12.70;6.27;;;0.90;99.10;;;;;;5013654;28;20021;-80
2021/12/03 00:49:44;;;;;;;11.90;6.00;;;0.90;99.20;;;;;;5011929;28;20409;-81
2021/12/03 00:52:10;;;;;;;11.40;6.10;;;0.90;99.20;;;;;;5012250;28;20100;-81
2021/12/03 00:54:36;;;;;;;14.00;6.67;;;0.90;99.20;;;;;;5012310;28;20072;-80
2021/12/03 00:57:03;;;;;;;10.57;6.23;;;0.90;99.10;;;;;;5026826;28;20082;-80
2021/12/03 00:59:29;;;;;;;12.57;6.30;;;0.90;99.20;;;;;;5012323;28;20470;-80
2021/12/03 01:01:54;;;;;;;11.93;6.57;;;0.90;99.20;;;;;;5013308;28;20026;-80
2021/12/03 01:04:20;;;;;;;14.70;6.47;;;0.90;99.20;;;;;;5013545;28;20034;-80
2021/12/03 01:06:46;;;;;;;14.03;6.40;;;0.90;99.20;;;;;;5013469;28;20144;-80
2021/12/03 01:09:11;;;;;;;9.60;5.90;;;0.80;99.20;;;;;;4995711;28;20137;-81
2021/12/03 01:11:37;;;;;;;12.50;6.50;;;0.80;99.20;;;;;;4979368;28;20045;-80
2021/12/03 01:14:03;;;;;;;14.67;7.17;;;0.80;99.20;;;;;;4996229;28;20033;-80
2021/12/03 01:16:30;;;;;;;10.87;6.53;;;0.80;99.20;;;;;;5013137;28;20033;-81
2021/12/03 01:18:57;;;;;;;16.43;7.80;;;0.80;99.30;;;;;;4996096;28;20488;-81
2021/12/03 01:21:23;;;;;;;12.67;6.47;;;0.80;99.30;;;;;;4995952;28;20034;-81
2021/12/03 01:23:50;;;;;;;14.53;6.80;;;0.80;99.30;;;;;;5013262;28;20105;-81
2021/12/03 01:26:17;;;;;;;13.87;7.27;;;0.80;99.40;;;;;;4995845;28;20051;-81
2021/12/03 01:28:43;;;;;;;12.33;6.87;;;0.90;99.40;;;;;;5013464;28;20026;-80
2021/12/03 01:31:09;;;;;;;12.13;6.70;;;0.80;99.40;;;;;;4995453;28;20041;-82
2021/12/03 01:33:35;;;;;;;12.20;6.70;;;0.80;99.40;;;;;;4995664;28;20105;-81
2021/12/03 01:36:01;;;;;;;10.23;6.37;;;0.80;99.40;;;;;;5013084;28;20429;-82
2021/12/03 01:38:27;;;;;;;11.93;6.40;;;0.80;99.50;;;;;;5013255;28;20026;-82
2021/12/03 01:40:52;;;;;;;11.60;6.60;;;0.80;99.50;;;;;;5013061;28;20052;-82
2021/12/03 01:43:28;;;;;;;12.23;6.43;;;0.80;99.50;;;;;;4979476;28;20049;-82
2021/12/03 01:45:58;;;;;;;12.97;7.17;;;0.80;99.60;;;;;;5013221;28;20098;-82
2021/12/03 01:48:25;;;;;;;13.20;7.00;;;0.80;99.70;;;;;;4995517;28;20014;-82
2021/12/03 01:50:51;;;;;;;12.93;7.17;;;0.80;99.70;;;;;;4992121;28;20065;-81
2021/12/03 01:53:20;;;;;;;13.57;6.87;;;0.90;99.70;;;;;;4992200;28;20066;-83
2021/12/03 01:55:48;;;;;;;12.23;7.33;;;0.90;99.70;;;;;;4992949;28;20037;-84
2021/12/03 01:58:15;;;;;;;14.20;7.83;;;0.90;99.70;;;;;;4995919;28;20018;-83
2021/12/03 02:00:51;;;;;;;12.53;6.77;;;0.90;99.80;;;;;;4996150;28;20026;-83
2021/12/03 02:03:18;;;;;;;13.00;7.63;;;0.90;99.80;;;;;;4997409;28;20019;-84
2021/12/03 02:05:45;;;;;;;14.90;7.73;;;0.90;99.80;;;;;;4997012;28;20034;-84
2021/12/03 02:08:12;;;;;;;13.83;8.00;;;1.00;99.90;;;;;;4979518;28;20030;-84
2021/12/03 02:10:39;;;;;;;14.13;7.80;;;1.00;99.90;;;;;;4995227;28;20038;-81
2021/12/03 02:13:05;;;;;;;21.40;9.10;;;1.00;99.90;;;;;;4996834;28;20113;-84
2021/12/03 02:15:31;;;;;;;15.40;7.93;;;1.00;99.90;;;;;;4996832;28;20023;-84
2021/12/03 02:17:57;;;;;;;17.00;9.17;;;1.00;99.90;;;;;;4996695;28;20029;-81
2021/12/03 02:20:23;;;;;;;15.17;8.90;;;1.10;99.90;;;;;;4995022;28;20026;-84
2021/12/03 02:22:49;;;;;;;17.20;8.43;;;1.10;99.90;;;;;;4979413;28;20395;-85
2021/12/03 02:25:21;;;;;;;15.10;9.53;;;1.10;99.90;;;;;;4995642;28;20026;-84
2021/12/03 02:27:53;;;;;;;17.43;9.07;;;1.20;99.90;;;;;;4996693;28;20022;-84
2021/12/03 02:30:19;;;;;;;16.00;9.20;;;1.20;99.90;;;;;;4996515;28;20065;-83
2021/12/03 02:32:46;;;;;;;16.07;9.60;;;1.10;99.90;;;;;;4996600;28;20026;-83
2021/12/03 02:35:12;;;;;;;18.50;9.77;;;1.20;99.90;;;;;;4996850;28;20035;-83
2021/12/03 02:37:37;;;;;;;18.00;9.83;;;1.20;99.90;;;;;;4995342;28;20459;-83
2021/12/03 02:40:06;;;;;;;15.03;9.00;;;1.10;99.90;;;;;;4996512;28;20098;-83
2021/12/03 02:42:32;;;;;;;19.03;9.83;;;1.20;99.90;;;;;;4995966;28;20463;-83
2021/12/03 02:44:58;;;;;;;17.47;10.13;;;1.20;99.90;;;;;;4996424;28;20029;-83
2021/12/03 02:47:24;;;;;;;17.50;9.20;;;1.30;99.90;;;;;;4994940;28;20030;-83
2021/12/03 02:49:49;;;;;;;17.60;9.00;;;1.30;99.90;;;;;;4995140;28;20031;-83
2021/12/03 02:52:15;;;;;;;18.17;9.43;;;1.30;99.90;;;;;;5015942;28;20030;-83
2021/12/03 02:54:41;;;;;;;16.37;9.20;;;1.30;99.90;;;;;;5015745;28;20378;-81
2021/12/03 02:57:07;;;;;;;15.37;8.83;;;1.30;99.90;;;;;;4998336;28;20026;-82
2021/12/03 02:59:33;;;;;;;18.03;9.60;;;1.30;99.90;;;;;;4981917;28;20026;-82
2021/12/03 03:02:00;;;;;;;17.47;9.20;;;1.30;99.90;;;;;;5015409;28;20401;-81
2021/12/03 03:04:26;;;;;;;20.40;9.03;;;1.40;99.90;;;;;;5015820;28;20014;-82
2021/12/03 03:06:52;;;;;;;16.97;9.50;;;1.40;99.90;;;;;;4997189;28;20496;-82
2021/12/03 03:09:17;;;;;;;18.03;10.10;;;1.30;99.90;;;;;;4981521;28;20050;-82
2021/12/03 03:11:43;;;;;;;15.57;9.13;;;1.40;99.90;;;;;;4997691;28;20037;-82
2021/12/03 03:14:09;;;;;;;21.23;9.93;;;1.40;99.90;;;;;;4997748;28;20018;-82
2021/12/03 03:16:36;;;;;;;20.37;10.40;;;1.40;99.90;;;;;;4997284;28;20052;-83
2021/12/03 03:19:20;;;;;;;13.60;8.87;;;1.40;99.90;;;;;;5015397;28;20084;-84
2021/12/03 03:21:46;;;;;;;14.52;9.55;;;1.40;99.90;;;;;;5015272;28;20022;-84
2021/12/03 03:24:13;;;;;;;18.00;9.17;;;1.40;99.90;;;;;;5015131;28;20462;-83
2021/12/03 03:26:41;;;;;;;15.77;9.70;;;1.40;99.90;;;;;;4997116;28;20095;-82
2021/12/03 03:29:09;;;;;;;19.43;9.87;;;1.40;99.90;;;;;;4997750;28;20466;-84
2021/12/03 03:31:37;;;;;;;21.30;10.77;;;1.40;99.90;;;;;;5015150;28;20064;-83
2021/12/03 03:34:04;;;;;;;18.50;10.77;;;1.40;99.90;;;;;;5013669;28;20037;-84
2021/12/03 03:36:39;;;;;;;18.33;10.33;;;1.40;99.90;;;;;;5015156;28;20025;-84
2021/12/03 03:39:11;;;;;;;20.20;11.23;;;1.50;99.90;;;;;;5014938;28;20068;-83
2021/12/03 03:41:37;;;;;;;18.83;12.10;;;1.60;99.90;;;;;;5014611;28;20105;-82
2021/12/03 03:44:03;;;;;;;21.23;12.40;;;1.40;99.90;;;;;;4996782;28;20034;-83
2021/12/03 03:46:29;;;;;;;22.13;13.37;;;1.50;99.90;;;;;;5013683;28;20022;-83
2021/12/03 03:48:55;;;;;;;22.23;13.47;;;1.60;99.90;;;;;;4997436;28;20417;-82
2021/12/03 03:51:22;;;;;;;21.93;13.57;;;1.60;99.90;;;;;;4996700;28;20049;-83
2021/12/03 03:53:47;;;;;;;25.17;13.60;;;1.60;99.90;;;;;;5015123;28;20030;-83
2021/12/03 03:56:13;;;;;;;19.77;13.43;;;1.60;99.90;;;;;;5014204;28;20378;-84
2021/12/03 03:58:41;;;;;;;28.20;16.17;;;1.60;99.90;;;;;;5014797;28;20034;-83
2021/12/03 04:01:08;;;;;;;29.17;16.23;;;1.80;99.90;;;;;;4997116;28;20030;-84
2021/12/03 04:03:34;;;;;;;28.77;16.03;;;1.60;99.90;;;;;;5014281;28;20018;-83
2021/12/03 04:06:00;;;;;;;31.63;18.37;;;1.70;99.90;;;;;;5014280;28;20067;-84
2021/12/03 04:08:29;;;;;;;30.40;18.17;;;1.80;99.90;;;;;;4996793;28;20109;-82
2021/12/03 04:10:57;;;;;;;28.27;18.67;;;1.70;99.90;;;;;;5014025;28;20030;-82
2021/12/03 04:13:23;;;;;;;42.27;20.17;;;1.80;99.90;;;;;;5014213;28;20022;-82
2021/12/03 04:15:49;;;;;;;30.67;19.27;;;1.80;99.90;;;;;;4996709;28;20026;-82
2021/12/03 04:18:15;;;;;;;36.83;21.20;;;1.80;99.90;;;;;;4996376;28;20057;-82
2021/12/03 04:20:40;;;;;;;35.73;21.90;;;1.80;99.90;;;;;;5012930;28;20034;-82
2021/12/03 04:23:06;;;;;;;39.00;22.90;;;1.90;99.90;;;;;;5014080;28;20022;-81
2021/12/03 04:25:34;;;;;;;41.90;22.77;;;1.90;99.90;;;;;;5012491;28;20120;-82
2021/12/03 04:28:00;;;;;;;37.43;23.73;;;1.90;99.90;;;;;;4996699;28;20026;-82
2021/12/03 04:30:28;;;;;;;46.43;25.17;;;1.90;99.90;;;;;;4996213;28;20637;-83
2021/12/03 04:32:55;;;;;;;41.83;25.13;;;1.90;99.90;;;;;;4996360;28;20084;-83
2021/12/03 04:35:22;;;;;;;40.60;25.33;;;2.00;99.90;;;;;;5012711;28;20037;-83
2021/12/03 04:37:47;;;;;;;49.53;28.10;;;2.00;99.90;;;;;;5013740;28;20080;-83
2021/12/03 04:40:16;;;;;;;50.03;26.17;;;2.10;99.90;;;;;;4996546;28;20030;-83
2021/12/03 04:42:42;;;;;;;44.20;26.40;;;2.10;99.90;;;;;;4996171;28;20022;-83
2021/12/03 04:45:10;;;;;;;46.10;25.47;;;2.10;99.90;;;;;;4996116;28;20026;-83
2021/12/03 04:47:37;;;;;;;49.07;26.97;;;2.10;99.90;;;;;;5013920;28;20018;-83
2021/12/03 04:50:05;;;;;;;51.17;26.83;;;2.20;99.90;;;;;;5013593;28;20101;-84
2021/12/03 04:52:31;;;;;;;56.13;30.90;;;2.20;99.90;;;;;;4995870;28;20042;-83
2021/12/03 04:54:56;;;;;;;58.53;29.80;;;2.20;99.90;;;;;;4996626;28;20087;-84
2021/12/03 04:57:22;;;;;;;54.30;29.23;;;2.20;99.90;;;;;;4995693;28;20108;-82
2021/12/03 04:59:48;;;;;;;62.40;30.00;;;2.20;99.90;;;;;;5013977;28;20026;-83
2021/12/03 05:02:13;;;;;;;63.90;29.73;;;2.20;99.90;;;;;;5013860;28;20026;-83
2021/12/03 05:04:40;;;;;;;66.70;30.43;;;2.20;99.90;;;;;;4996058;28;20533;-83
2021/12/03 05:09:36;;;;;;;70.00;32.10;;;2.20;99.90;;;;;;5013701;28;20030;-84
2021/12/03 05:12:04;;;;;;;71.90;33.40;;;2.30;99.90;;;;;;5004810;28;20030;-82
2021/12/03 05:14:30;;;;;;;77.60;33.13;;;2.30;99.90;;;;;;5032711;28;20474;-84
2021/12/03 05:16:57;;;;;;;77.30;33.00;;;2.30;99.90;;;;;;5029533;28;20465;-83
2021/12/03 05:19:22;;;;;;;68.40;31.50;;;2.30;99.90;;;;;;5021727;28;20029;-83
2021/12/03 05:21:49;;;;;;;77.83;34.20;;;2.30;99.90;;;;;;5013521;28;20030;-82
2021/12/03 05:24:15;;;;;;;75.80;32.87;;;2.30;99.90;;;;;;4995785;28;20041;-81
2021/12/03 05:26:43;;;;;;;75.80;34.90;;;2.30;99.90;;;;;;4981978;28;20095;-82
2021/12/03 05:29:09;;;;;;;83.80;33.77;;;2.40;99.90;;;;;;5032306;28;20453;-81
2021/12/03 05:31:36;;;;;;;80.27;34.30;;;2.40;99.90;;;;;;5033927;28;20073;-84
2021/12/03 05:34:04;;;;;;;77.07;35.77;;;2.40;99.90;;;;;;5035183;28;20381;-84
2021/12/03 05:36:30;;;;;;;85.17;36.90;;;2.40;99.90;;;;;;5037192;28;20076;-83
2021/12/03 05:38:55;;;;;;;82.90;38.47;;;2.40;99.90;;;;;;5003176;28;20053;-83
2021/12/03 05:41:21;;;;;;;78.47;36.63;;;2.30;99.90;;;;;;5018247;28;20052;-83
2021/12/03 05:43:48;;;;;;;82.43;38.47;;;2.40;99.90;;;;;;5036270;28;20055;-82
2021/12/03 05:46:14;;;;;;;80.53;37.37;;;2.40;99.90;;;;;;5019060;28;20098;-83
2021/12/03 05:48:39;;;;;;;79.83;34.77;;;2.40;99.90;;;;;;5036802;28;20026;-83
2021/12/03 05:51:06;;;;;;;84.23;39.57;;;2.50;99.90;;;;;;5018566;28;20057;-83
2021/12/03 05:53:32;;;;;;;80.23;37.67;;;2.50;99.90;;;;;;5036679;28;20017;-83
2021/12/03 05:55:58;;;;;;;90.73;39.83;;;2.60;99.90;;;;;;5018575;28;20021;-83
2021/12/03 05:58:25;;;;;;;85.67;38.97;;;2.50;99.90;;;;;;5018844;28;20040;-83
2021/12/03 06:00:51;;;;;;;81.10;38.17;;;2.50;99.90;;;;;;5036577;28;20450;-84
2021/12/03 06:03:16;;;;;;;81.13;39.73;;;2.50;99.90;;;;;;5018298;28;20064;-83
2021/12/03 06:05:42;;;;;;;86.80;39.10;;;2.50;99.90;;;;;;5036714;28;20079;-83
2021/12/03 06:08:08;;;;;;;80.07;38.03;;;2.60;99.90;;;;;;5018829;28;20116;-84
2021/12/03 06:10:34;;;;;;;77.30;36.93;;;2.60;99.90;;;;;;5036455;28;20057;-84
2021/12/03 06:13:02;;;;;;;71.57;34.63;;;2.60;99.90;;;;;;5032996;28;20057;-83
2021/12/03 06:15:28;;;;;;;81.30;34.87;;;2.70;99.90;;;;;;5015366;28;20109;-83
2021/12/03 06:17:53;;;;;;;72.60;35.17;;;2.60;99.90;;;;;;5016186;28;20097;-84
2021/12/03 06:20:19;;;;;;;80.83;36.67;;;2.60;99.90;;;;;;4998132;28;20030;-84
2021/12/03 06:22:46;;;;;;;81.00;36.13;;;2.70;99.90;;;;;;4982013;28;20022;-83
2021/12/03 06:25:12;;;;;;;79.23;37.07;;;2.80;99.90;;;;;;5015971;28;20092;-82
2021/12/03 06:27:39;;;;;;;72.63;33.60;;;2.70;99.90;;;;;;4982140;28;20026;-83
2021/12/03 06:30:10;;;;;;;72.80;33.43;;;2.70;99.90;;;;;;5016049;28;20488;-82
2021/12/03 06:32:36;;;;;;;85.97;37.67;;;2.80;99.90;;;;;;5015911;28;20474;-82
2021/12/03 06:35:03;;;;;;;84.70;36.17;;;2.80;99.90;;;;;;4997948;28;20104;-82
2021/12/03 06:37:29;;;;;;;81.93;36.77;;;2.70;99.90;;;;;;4998630;28;20459;-83
2021/12/03 06:39:54;;;;;;;72.93;34.13;;;2.70;99.90;;;;;;4998145;28;20065;-83
2021/12/03 06:42:20;;;;;;;86.57;36.07;;;2.80;99.90;;;;;;4987789;28;20025;-83
2021/12/03 06:44:45;;;;;;;83.60;35.83;;;2.80;99.90;;;;;;5011221;28;20428;-83
2021/12/03 06:47:11;;;;;;;75.27;34.17;;;2.80;99.90;;;;;;5026884;28;20051;-82
2021/12/03 06:49:37;;;;;;;77.13;35.37;;;2.80;99.90;;;;;;5002351;28;20037;-83
2021/12/03 06:52:07;;;;;;;76.80;36.00;;;2.80;99.90;;;;;;5014821;28;20398;-83
2021/12/03 06:54:34;;;;;;;71.43;33.40;;;2.80;99.90;;;;;;5025132;28;20038;-82
2021/12/03 06:57:02;;;;;;;76.93;33.17;;;2.80;99.90;;;;;;4997261;28;20394;-82
2021/12/03 06:59:28;;;;;;;65.73;30.33;;;2.90;99.90;;;;;;4996792;28;20049;-82
2021/12/03 07:01:54;;;;;;;66.77;29.67;;;2.90;99.90;;;;;;5015141;28;20053;-82
2021/12/03 07:04:21;;;;;;;66.17;31.17;;;2.90;99.90;;;;;;5015199;28;20030;-82
2021/12/03 07:06:46;;;;;;;61.43;28.80;;;2.90;99.90;;;;;;4997914;28;20463;-82
2021/12/03 07:09:13;;;;;;;63.00;29.83;;;2.90;99.90;;;;;;4997862;28;20033;-82
2021/12/03 07:11:39;;;;;;;56.03;28.17;;;2.90;99.90;;;;;;5004398;28;20057;-82
2021/12/03 07:14:05;;;;;;;62.47;29.47;;;2.90;99.90;;;;;;5005556;28;20608;-82
2021/12/03 07:16:31;;;;;;;55.83;26.90;;;2.90;99.90;;;;;;4991240;28;20099;-81
2021/12/03 07:18:57;;;;;;;56.67;25.23;;;2.90;99.90;;;;;;5006911;28;20022;-82
2021/12/03 07:21:23;;;;;;;52.80;25.23;;;2.90;99.90;;;;;;5007976;28;20017;-82
2021/12/03 07:23:50;;;;;;;52.00;24.40;;;2.80;99.90;;;;;;5023223;28;20457;-82
2021/12/03 07:26:17;;;;;;;43.43;22.30;;;2.90;99.90;;;;;;5024010;28;20089;-82
2021/12/03 07:28:44;;;;;;;44.83;21.07;;;2.90;99.90;;;;;;5007205;28;20056;-82
2021/12/03 07:31:10;;;;;;;51.00;20.90;;;2.90;99.90;;;;;;5005252;28;20049;-82
2021/12/03 07:33:35;;;;;;;59.57;21.17;;;2.90;99.90;;;;;;5024864;28;20437;-82
2021/12/03 07:36:01;;;;;;;42.77;20.50;;;2.90;99.90;;;;;;4990830;28;20014;-82
2021/12/03 07:38:27;;;;;;;44.30;19.00;;;2.90;99.90;;;;;;5023220;28;20017;-82
2021/12/03 07:40:52;;;;;;;38.77;18.00;;;3.00;99.90;;;;;;5007099;28;20021;-81
2021/12/03 07:43:19;;;;;;;36.80;17.10;;;2.90;99.90;;;;;;5021941;28;20619;-82
2021/12/03 07:45:46;;;;;;;44.87;16.43;;;2.90;99.90;;;;;;4991300;28;20057;-82
2021/12/03 07:48:12;;;;;;;36.63;16.30;;;3.00;99.90;;;;;;5017108;28;20052;-82
2021/12/03 07:50:40;;;;;;;39.10;15.43;;;2.90;99.90;;;;;;5014061;28;20525;-81
2021/12/03 07:53:07;;;;;;;33.03;14.50;;;2.90;99.90;;;;;;5013809;28;20022;-81
2021/12/03 07:55:33;;;;;;;37.97;14.63;;;3.00;99.90;;;;;;4996761;28;20017;-82
2021/12/03 07:57:59;;;;;;;34.53;12.07;;;3.00;99.90;;;;;;4996299;28;20030;-82
2021/12/03 08:00:25;;;;;;;26.13;11.90;;;3.00;99.90;;;;;;4980336;28;20195;-83
2021/12/03 08:02:51;;;;;;;37.07;12.77;;;3.00;99.90;;;;;;4996418;28;20418;-83
2021/12/03 08:05:17;;;;;;;33.47;10.87;;;3.00;99.90;;;;;;4996326;28;20022;-83
2021/12/03 08:07:46;;;;;;;29.53;10.23;;;3.00;99.80;;;;;;5013956;28;20068;-83
2021/12/03 08:10:13;;;;;;;20.97;10.53;;;3.10;99.60;;;;;;5013620;28;20062;-83
2021/12/03 08:12:39;;;;;;;22.97;8.47;;;3.10;99.40;;;;;;5013687;28;20029;-82
2021/12/03 08:15:06;;;;;;;27.50;9.00;;;3.10;99.40;;;;;;4980418;28;20045;-82
2021/12/03 08:17:32;;;;;;;23.30;9.27;;;3.10;99.30;;;;;;4980095;28;20030;-83
2021/12/03 08:19:58;;;;;;;20.70;8.60;;;3.10;98.90;;;;;;5013696;28;20032;-83
2021/12/03 08:22:24;;;;;;;21.20;7.57;;;3.10;98.60;;;;;;5014006;28;20347;-82
2021/12/03 08:24:49;;;;;;;24.37;8.50;;;3.10;98.50;;;;;;4995745;28;20056;-83
2021/12/03 08:27:15;;;;;;;22.83;6.60;;;3.20;98.20;;;;;;5013611;28;20454;-82
2021/12/03 08:29:41;;;;;;;21.73;7.27;;;3.20;98.00;;;;;;5015437;28;20073;-82
2021/12/03 08:32:07;;;;;;;19.90;6.63;;;3.20;98.20;;;;;;5015521;28;20072;-83
2021/12/03 08:34:34;;;;;;;24.83;7.10;;;3.20;97.90;;;;;;4999760;28;20045;-82
2021/12/03 08:36:59;;;;;;;19.20;5.90;;;3.20;97.60;;;;;;4998883;28;20428;-83
2021/12/03 08:39:25;;;;;;;21.53;6.23;;;3.30;97.50;;;;;;5025990;28;20107;-83
2021/12/03 08:41:50;;;;;;;23.40;6.23;;;3.30;97.50;;;;;;5032350;28;20045;-83
2021/12/03 08:44:16;;;;;;;24.57;7.10;;;3.30;97.30;;;;;;5015891;28;20060;-83
2021/12/03 08:46:43;;;;;;;18.43;6.37;;;3.30;97.20;;;;;;5015417;28;20032;-83
2021/12/03 08:49:12;;;;;;;17.50;6.10;;;3.40;96.90;;;;;;5014852;28;20444;-81
2021/12/03 08:56:51;;;;;;;;;;;3.40;96.70;;;;;;5018955;28;20040;-82
2021/12/03 08:59:17;;;;;;;18.43;5.30;;;3.40;96.40;;;;;;5015234;28;20323;-83
2021/12/03 09:01:44;;;;;;;17.80;5.77;;;3.40;96.50;;;;;;5033306;28;20028;-83
2021/12/03 09:04:10;;;;;;;19.73;5.10;;;3.40;96.30;;;;;;5015250;28;20029;-83
2021/12/03 09:06:37;;;;;;;22.53;6.53;;;3.40;96.00;;;;;;5014125;28;20025;-83
2021/12/03 09:09:03;;;;;;;13.47;5.47;;;3.50;96.00;;;;;;5015945;28;20049;-83
2021/12/03 09:11:30;;;;;;;17.03;4.83;;;3.50;96.00;;;;;;5032908;28;20041;-83
2021/12/03 09:13:58;;;;;;;18.63;4.80;;;3.50;96.10;;;;;;5016173;28;20018;-83
2021/12/03 09:16:24;;;;;;;18.03;5.27;;;3.50;96.10;;;;;;5015493;28;20028;-82
2021/12/03 09:18:52;;;;;;;19.53;5.40;;;3.60;96.20;;;;;;5015438;28;20017;-84
2021/12/03 09:21:27;;;;;;;20.83;5.70;;;3.60;96.20;;;;;;5032482;28;20029;-84
2021/12/03 09:26:29;;;;;;;13.83;4.43;;;3.60;95.90;;;;;;5033291;28;20029;-83
2021/12/03 09:29:01;;;;;;;19.40;5.33;;;3.60;95.90;;;;;;5033134;28;20045;-83
2021/12/03 09:31:27;;;;;;;20.50;4.83;;;3.80;95.70;;;;;;5032543;28;20385;-83
2021/12/03 09:33:54;;;;;;;18.10;4.53;;;3.70;95.50;;;;;;5014978;28;20022;-84
2021/12/03 09:36:19;;;;;;;16.03;4.47;;;3.70;95.50;;;;;;5033038;28;20026;-85
2021/12/03 09:38:45;;;;;;;15.37;5.00;;;3.60;95.50;;;;;;5015157;28;20132;-83
2021/12/03 09:41:19;;;;;;;20.03;4.73;;;3.70;95.40;;;;;;5015502;28;20469;-83
2021/12/03 09:43:49;;;;;;;19.50;4.80;;;3.80;95.40;;;;;;5015057;28;20021;-84
2021/12/03 09:46:20;;;;;;;14.43;3.97;;;3.80;95.30;;;;;;5015013;28;20021;-84
2021/12/03 09:51:36;;;;;;;16.23;4.60;;;3.80;95.30;;;;;;5017127;28;20058;-83
2021/12/03 09:56:31;;;;;;;11.70;3.93;;;3.80;95.20;;;;;;5032583;28;19905;-82
2021/12/03 10:01:39;;;;;;;14.70;4.30;;;3.80;95.10;;;;;;5032788;28;20060;-83
2021/12/03 10:12:34;;;;;;;16.15;5.05;;;3.90;94.90;;;;;;5032601;28;20151;-82
2021/12/03 10:15:20;;;;;;;14.30;4.37;;;3.90;94.90;;;;;;5015154;28;20023;-83
2021/12/03 10:18:16;;;;;;;18.33;4.03;;;4.00;94.70;;;;;;5034979;28;20014;-82
2021/12/03 10:28:38;;;;;;;15.33;3.73;;;4.10;94.30;;;;;;5024810;28;20037;-84
2021/12/03 10:47:11;;;;;;;10.90;3.63;;;4.10;94.80;;;;;;5035829;28;20064;-83
2021/12/03 10:49:52;;;;;;;19.37;4.73;;;4.10;94.90;;;;;;5020174;28;20018;-83
2021/12/03 10:52:35;;;;;;;13.80;3.63;;;4.10;95.10;;;;;;5019569;28;20056;-83
2021/12/03 10:55:41;;;;;;;21.17;4.30;;;4.10;95.30;;;;;;5035564;28;20357;-83
2021/12/03 11:48:29;;;;;;;16.27;4.23;;;4.50;96.80;;;;;;5034351;28;20108;-83
2021/12/03 12:18:59;;;;;;;17.47;4.57;;;5.00;95.40;;;;;;5018515;28;20345;-85
2021/12/03 12:28:54;;;;;;;20.03;4.67;;;5.10;94.40;;;;;;5034031;28;20124;-82
2021/12/03 14:09:12;;;;;;;10.87;2.80;;;5.40;92.60;;;;;;5014845;28;20034;-83
2021/12/03 14:21:17;;;;;;;9.03;2.70;;;5.30;93.20;;;;;;5014952;28;20099;-83
2021/12/03 14:44:19;;;;;;;6.50;2.40;;;5.20;95.20;;;;;;5011868;28;20026;-81
2021/12/03 14:58:02;;;;;;;10.80;2.80;;;5.10;96.40;;;;;;5014686;28;20521;-81
2021/12/03 15:00:18;;;;;;;9.83;2.70;;;5.00;96.90;;;;;;5013017;28;20026;-82
2021/12/03 15:08:09;;;;;;;6.93;3.00;;;4.80;97.80;;;;;;5015385;28;20030;-82
2021/12/03 15:34:53;;;;;;;14.07;4.30;;;4.60;99.80;;;;;;4995397;28;20038;-83
2021/12/03 15:40:14;;;;;;;9.20;3.90;;;4.60;99.90;;;;;;4995449;28;20035;-82
2021/12/03 16:04:54;;;;;;;;;;;4.50;99.90;;;;;;4994727;28;20030;-83
2021/12/03 16:07:40;;;;;;;8.97;5.50;;;4.50;99.90;;;;;;5006367;28;19917;-82
2021/12/03 16:23:32;;;;;;;10.20;6.13;;;4.50;99.90;;;;;;5011339;28;20053;-82
2021/12/03 16:52:53;;;;;;;12.60;8.43;;;4.50;99.90;;;;;;5026920;28;20136;-83
2021/12/03 16:55:20;;;;;;;12.00;7.87;;;4.50;99.90;;;;;;5033290;28;20024;-83
2021/12/03 16:57:50;;;;;;;11.87;8.30;;;4.50;99.90;;;;;;5034006;28;20014;-83
2021/12/03 17:00:26;;;;;;;15.13;8.40;;;4.50;99.90;;;;;;5033395;28;20106;-83
2021/12/03 17:46:03;;;;;;;;;;;4.80;99.90;;;;;;5021998;28;20179;-82
2021/12/03 17:56:13;;;;;;;10.13;7.30;;;4.80;99.90;;;;;;5015076;28;20041;-83
2021/12/03 17:58:48;;;;;;;10.23;7.53;;;4.80;99.90;;;;;;5000770;28;20041;-83
2021/12/03 18:01:27;;;;;;;8.27;6.30;;;4.80;99.90;;;;;;5045607;28;20366;-83
2021/12/03 18:04:04;;;;;;;11.20;7.07;;;4.90;99.90;;;;;;4993235;28;20374;-83
2021/12/03 18:15:09;;;;;;;10.32;6.35;;;4.90;99.90;;;;;;5015530;28;20084;-83
2021/12/03 18:45:00;;;;;;;8.30;6.20;;;5.00;99.90;;;;;;5016624;28;20497;-82
2021/12/03 18:50:15;;;;;;;9.03;7.00;;;5.00;99.90;;;;;;5015641;28;20079;-82
2021/12/03 18:55:29;;;;;;;14.07;7.10;;;5.00;99.90;;;;;;5015789;28;20030;-83
2021/12/03 18:57:59;;;;;;;10.13;6.33;;;5.00;99.90;;;;;;5014621;28;20068;-83
2021/12/03 19:00:28;;;;;;;8.93;6.77;;;5.00;99.90;;;;;;5023892;28;20026;-82
2021/12/03 19:02:56;;;;;;;11.37;7.17;;;5.00;99.90;;;;;;5015293;28;20026;-81
2021/12/03 19:07:57;;;;;;;10.90;7.17;;;5.10;99.90;;;;;;5015384;28;20041;-82
2021/12/03 19:10:25;;;;;;;12.47;8.80;;;5.00;99.90;;;;;;4997587;28;20026;-82
2021/12/03 19:12:57;;;;;;;11.10;8.37;;;5.10;99.90;;;;;;4981938;28;20038;-81
2021/12/03 19:15:25;;;;;;;11.37;9.43;;;5.00;99.90;;;;;;5015719;28;20021;-82
2021/12/03 19:17:51;;;;;;;11.73;8.77;;;5.00;99.90;;;;;;5015199;28;20026;-82
2021/12/03 19:20:21;;;;;;;11.27;9.13;;;5.00;99.90;;;;;;4997691;28;20037;-81
2021/12/03 19:22:49;;;;;;;10.23;8.30;;;5.00;99.90;;;;;;5015231;28;20072;-82
2021/12/03 19:25:15;;;;;;;11.73;8.70;;;5.00;99.90;;;;;;5031898;28;20021;-82
2021/12/03 19:27:42;;;;;;;11.10;8.40;;;5.10;99.90;;;;;;5017980;28;20043;-81
2021/12/03 19:30:08;;;;;;;11.57;9.10;;;5.00;99.90;;;;;;5034702;28;20032;-82
2021/12/03 19:32:34;;;;;;;14.00;9.87;;;5.00;99.90;;;;;;5017291;28;20041;-82
2021/12/03 19:35:00;;;;;;;12.03;9.70;;;5.00;99.90;;;;;;5034886;28;20088;-81
2021/12/03 19:37:28;;;;;;;12.13;8.70;;;5.00;99.90;;;;;;5000800;28;20440;-82
2021/12/03 19:39:57;;;;;;;14.40;9.73;;;5.00;99.90;;;;;;5001151;28;20515;-83
2021/12/03 19:42:27;;;;;;;14.40;9.53;;;5.00;99.90;;;;;;5034684;28;20018;-81
2021/12/03 19:44:56;;;;;;;14.97;9.90;;;4.90;99.90;;;;;;5017709;28;20017;-82
2021/12/03 19:47:46;;;;;;;17.03;10.23;;;5.00;99.90;;;;;;5034261;28;20026;-82
2021/12/03 19:50:41;;;;;;;14.80;10.27;;;5.00;99.90;;;;;;5018896;28;20018;-82
2021/12/03 19:53:09;;;;;;;14.13;10.70;;;4.90;99.90;;;;;;5031218;28;20543;-82
2021/12/03 19:55:38;;;;;;;12.17;9.47;;;5.10;99.90;;;;;;5015097;28;20018;-81
2021/12/03 19:58:08;;;;;;;12.83;9.83;;;5.00;99.90;;;;;;5017222;28;20466;-82
2021/12/03 20:00:35;;;;;;;13.67;10.33;;;4.90;99.90;;;;;;5016380;28;20067;-82
2021/12/03 20:03:01;;;;;;;14.50;10.60;;;5.10;99.90;;;;;;5033158;28;20029;-82
2021/12/03 20:05:27;;;;;;;13.70;9.87;;;5.00;99.90;;;;;;5016227;28;20048;-83
2021/12/03 20:07:54;;;;;;;14.10;9.73;;;4.90;99.90;;;;;;5016668;28;20025;-83
2021/12/03 20:10:22;;;;;;;13.37;9.93;;;5.00;99.90;;;;;;5016951;28;20017;-83
2021/12/03 20:12:49;;;;;;;13.57;10.27;;;5.00;99.90;;;;;;5016913;28;20381;-82
2021/12/03 20:15:32;;;;;;;12.83;10.40;;;4.90;99.90;;;;;;5034791;28;20017;-83
2021/12/03 20:18:09;;;;;;;15.23;11.07;;;4.90;99.90;;;;;;5034642;28;20014;-84
2021/12/03 20:20:35;;;;;;;14.73;10.53;;;4.90;99.90;;;;;;5016410;28;20029;-83
2021/12/03 20:28:05;;;;;;;15.00;9.47;;;4.90;99.90;;;;;;5033315;28;20764;-83
2021/12/03 20:38:36;;;;;;;13.33;10.07;;;4.90;99.90;;;;;;5034315;28;20390;-83
2021/12/03 20:41:06;;;;;;;14.47;10.53;;;4.90;99.90;;;;;;5033554;28;20025;-83
2021/12/03 20:52:03;;;;;;;15.27;11.03;;;5.00;99.90;;;;;;4934250;29;20043;-83